Richwood, Texas
Current Conditions -  °F | °C
As of 2:53 AM on Friday 19 Dec 2014 (Local Time) from KLBX Reporting Station
Haze Haze  
Wind Chill: 62°   Ceiling: 300
Heat Index: 62°   Visibility: 6mi
Dew Point: 62°   Wind: 9mph
Humidity: 100%   Direction: 330°NNW
Pressure: 30"   Gusts: NA
Location:  29.0424°N, 95.4739°W
Report Text: KLBX 190853Z AUTO 33008KT 6SM BR OVC003 17/17 A3000 RMK AO2 SLP157 60002 T01670167 55005
Loading
Personal Weather Stations






























Interactive Weather Map New forecast layout! Learn more

10-Day Weather Forecast

Advertisements
Track Severe Weather on mobile